Adco, Washington
Current Conditions -  °F | °C
As of 9:09 AM on Wednesday 26 Nov 2014 (Local Time) from KEPH Reporting Station
Moderate Fog Moderate Fog  
Wind Chill: 33°   Ceiling: 300
Heat Index: 37°   Visibility: 0.25mi
Dew Point: 37°   Wind: 5mph
Humidity: 100%   Direction: 40°NE
Pressure: 30.18"   Gusts: NA
Location:  47.4314°N, 119.485°W
Report Text: KEPH 261709Z AUTO 04004KT 1/4SM FG VV003 03/03 A3018 RMK AO2 T00280028
Loading
Personal Weather Stations






























Interactive Weather Map New forecast layout! Learn more

10-Day Weather Forecast

Advertisements
Track Severe Weather on mobile